createdAt,value
2023-01-19T12:19:11.270Z,2.40
2023-01-19T12:21:38.184Z,2.50
2023-01-19T12:24:35.562Z,2.50
2023-01-19T12:27:13.159Z,2.50
2023-01-19T12:29:41.368Z,2.60
2023-01-19T12:32:14.405Z,2.60
2023-01-19T12:34:42.394Z,2.60
2023-01-19T12:37:28.576Z,2.50
2023-01-19T12:40:22.193Z,2.50
2023-01-19T12:43:04.568Z,2.50
2023-01-19T12:45:50.755Z,2.50
2023-01-19T12:48:27.494Z,2.50
2023-01-19T12:50:57.024Z,2.50
2023-01-19T12:53:38.714Z,2.50
2023-01-19T12:56:24.032Z,2.50
2023-01-19T12:59:03.319Z,2.60
2023-01-19T13:02:08.347Z,2.60
2023-01-19T13:04:44.255Z,2.70
2023-01-19T13:07:29.137Z,2.80
2023-01-19T13:09:57.010Z,2.80
2023-01-19T13:12:25.288Z,2.90
2023-01-19T13:15:12.166Z,2.80
2023-01-19T13:17:51.230Z,2.80
2023-01-19T13:20:21.193Z,2.80
2023-01-19T13:22:50.876Z,2.80
2023-01-19T13:25:35.590Z,2.80
2023-01-19T13:28:08.303Z,2.80
2023-01-19T13:30:36.506Z,2.80
2023-01-19T13:33:14.445Z,2.80
2023-01-19T13:35:50.152Z,2.80
2023-01-19T13:38:17.057Z,2.90
2023-01-19T13:40:44.696Z,2.90
2023-01-19T13:43:19.457Z,3.00
2023-01-19T13:45:53.355Z,3.00
2023-01-19T13:48:29.822Z,3.00
2023-01-19T13:51:13.772Z,3.00
2023-01-19T13:54:01.671Z,3.00
2023-01-19T13:56:34.309Z,3.00
2023-01-19T13:59:12.554Z,3.10
2023-01-19T14:01:44.542Z,3.10
2023-01-19T14:04:31.503Z,3.10
2023-01-19T14:07:03.988Z,3.10
2023-01-19T14:09:31.080Z,3.10
2023-01-19T14:12:07.905Z,3.10
2023-01-19T14:14:34.731Z,3.20
2023-01-19T14:17:01.607Z,3.20
2023-01-19T14:19:28.645Z,3.10
2023-01-19T14:22:20.205Z,3.10
2023-01-19T14:24:47.507Z,3.10
2023-01-19T14:27:21.840Z,3.10
2023-01-19T14:29:53.879Z,3.10
2023-01-19T14:32:22.592Z,3.10
2023-01-19T14:35:04.714Z,3.00
2023-01-19T14:37:47.161Z,3.00
2023-01-19T14:40:29.509Z,3.00
2023-01-19T14:43:09.339Z,3.00
2023-01-19T14:45:47.227Z,3.00
2023-01-19T14:48:18.200Z,2.90
2023-01-19T14:50:57.676Z,2.90
2023-01-19T14:53:29.860Z,3.00
2023-01-19T14:56:02.185Z,3.00
2023-01-19T14:59:15.672Z,3.00
2023-01-19T15:02:00.908Z,3.00
2023-01-19T15:04:45.890Z,3.10
2023-01-19T15:07:20.254Z,3.10
2023-01-19T15:09:47.976Z,3.10
2023-01-19T15:12:17.562Z,3.20
2023-01-19T15:14:45.111Z,3.20
2023-01-19T15:17:17.686Z,3.20
2023-01-19T15:19:44.525Z,3.10
2023-01-19T15:22:24.753Z,3.10
2023-01-19T15:25:02.615Z,3.10
2023-01-19T15:27:33.478Z,3.10
2023-01-19T15:30:01.543Z,3.10
2023-01-19T15:32:28.710Z,3.00
2023-01-19T15:34:55.677Z,3.00
2023-01-19T15:37:23.054Z,3.00
2023-01-19T15:39:56.036Z,3.00
2023-01-19T15:42:22.904Z,3.00
2023-01-19T15:45:39.707Z,3.00
2023-01-19T15:48:18.773Z,3.00
2023-01-19T15:50:52.191Z,3.00
